Time;durP1;ratioP1;P1;durP2;ratioP2;P2;SDS_P1;SDS_P2;PMS_P1;PMS_P2;Temp;Humidity;BMP_temperature;BMP_pressure;BME280_temperature;BME280_humidity;BME280_pressure;Samples;Min_cycle;Max_cycle;Signal;HPM_P1;HPM_P2
2022/10/18 00:00:52;;;;;;;82.85;51.47;;;;;;;23.01;68.45;98645.84;4855636;29;20117;-71
2022/10/18 00:03:43;;;;;;;83.03;49.88;;;;;;;22.97;68.79;98644.81;4853649;29;20057;-70
2022/10/18 00:06:25;;;;;;;82.10;50.92;;;;;;;22.98;68.91;98646.44;4837052;29;20049;-71
2022/10/18 00:09:14;;;;;;;86.82;52.70;;;;;;;23.04;68.28;98646.09;4841408;29;20121;-71
2022/10/18 00:11:56;;;;;;;86.78;52.75;;;;;;;22.99;68.06;98648.06;4855506;29;20065;-71
2022/10/18 00:14:46;;;;;;;84.10;53.08;;;;;;;23.00;68.33;98649.69;4853160;29;20039;-70
2022/10/18 00:17:28;;;;;;;95.13;53.50;;;;;;;23.00;67.90;98652.41;4839638;29;20053;-70
2022/10/18 00:20:18;;;;;;;89.75;51.50;;;;;;;23.02;67.75;98658.41;4839564;29;20065;-71
2022/10/18 00:23:00;;;;;;;82.95;51.42;;;;;;;22.93;68.01;98657.44;4853376;29;20416;-71
2022/10/18 00:25:50;;;;;;;84.82;51.50;;;;;;;22.96;68.76;98662.34;4853842;29;20128;-70
2022/10/18 00:32:32;;;;;;;84.65;53.00;;;;;;;22.95;68.43;98677.13;4825597;29;20397;-70
2022/10/18 00:35:08;;;;;;;83.75;51.65;;;;;;;22.87;68.49;98679.44;4835639;29;20054;-71
2022/10/18 00:37:57;;;;;;;86.65;51.65;;;;;;;22.73;69.78;98680.47;4837403;29;20070;-71
2022/10/18 00:40:47;;;;;;;81.63;51.95;;;;;;;22.75;69.34;98681.78;4823954;29;20046;-71
2022/10/18 00:43:28;;;;;;;88.32;52.03;;;;;;;22.89;69.39;98684.63;4838720;29;20068;-71
2022/10/18 00:46:18;;;;;;;85.00;50.95;;;;;;;22.90;69.85;98688.97;4837369;29;20058;-70
2022/10/18 00:49:21;;;;;;;87.35;50.95;;;;;;;22.79;69.87;98687.47;4853617;29;20053;-71
2022/10/18 00:52:50;;;;;;;84.55;51.05;;;;;;;22.69;69.61;98688.44;4836704;29;20656;-71
2022/10/18 00:55:39;;;;;;;87.82;51.53;;;;;;;22.74;69.87;98693.84;4836175;29;20049;-70
2022/10/18 00:58:28;;;;;;;83.55;49.67;;;;;;;22.68;69.75;98693.09;4836780;29;20133;-71
2022/10/18 01:01:09;;;;;;;84.80;51.42;;;;;;;22.80;69.66;98684.47;4836824;29;20061;-71
2022/10/18 01:04:00;;;;;;;85.30;51.55;;;;;;;22.83;69.93;98692.09;4818396;29;20061;-70
2022/10/18 01:07:04;;;;;;;89.95;52.00;;;;;;;22.88;69.14;98699.41;4813896;29;20068;-71
2022/10/18 01:09:59;;;;;;;81.43;50.47;;;;;;;22.77;69.73;98695.16;4816807;29;20143;-71
2022/10/18 01:13:26;;;;;;;86.82;53.08;;;;;;;22.82;69.94;98695.91;4840809;29;20145;-71
2022/10/18 01:16:27;;;;;;;78.03;50.80;;;;;;;22.72;70.64;98698.81;4816703;29;20061;-70
2022/10/18 01:19:37;;;;;;;91.82;53.42;;;;;;;22.73;70.43;98705.88;4844699;29;20588;-70
2022/10/18 01:22:27;;;;;;;91.40;50.75;;;;;;;22.79;70.22;98715.66;4850557;29;20076;-70
2022/10/18 01:25:54;;;;;;;87.25;51.95;;;;;;;22.92;69.38;98725.06;4852998;29;20088;-71
2022/10/18 01:28:48;;;;;;;85.10;50.45;;;;;;;22.90;69.54;98721.81;4854527;29;20136;-71
2022/10/18 01:32:11;;;;;;;77.80;51.38;;;;;;;22.96;70.13;98725.28;4848473;29;20063;-71
2022/10/18 01:34:50;;;;;;;83.38;51.67;;;;;;;22.94;70.27;98730.25;4870492;29;20049;-69
2022/10/18 01:37:42;;;;;;;84.85;51.58;;;;;;;22.92;69.80;98737.94;4872080;29;20049;-72
2022/10/18 01:40:32;;;;;;;81.38;51.60;;;;;;;22.78;70.62;98733.19;4857798;29;20052;-69
2022/10/18 01:43:15;;;;;;;81.32;53.28;;;;;;;23.02;70.02;98735.03;4856028;29;20052;-69
2022/10/18 01:46:06;;;;;;;78.78;51.75;;;;;;;23.14;68.87;98743.69;4851304;29;20049;-69
2022/10/18 01:48:48;;;;;;;79.00;50.58;;;;;;;23.19;69.39;98745.50;4870881;29;20053;-70
2022/10/18 01:51:39;;;;;;;98.93;53.42;;;;;;;23.16;68.98;98746.94;4853666;29;20053;-69
2022/10/18 01:54:38;;;;;;;99.68;52.85;;;;;;;23.24;69.13;98749.00;4853477;29;20053;-70
2022/10/18 01:57:30;;;;;;;90.88;49.60;;;;;;;23.22;68.77;98764.09;4853470;29;20141;-69
2022/10/18 02:00:22;;;;;;;94.10;52.80;;;;;;;23.35;69.27;98762.50;4853559;29;20061;-69
2022/10/18 02:03:29;;;;;;;82.53;51.22;;;;;;;23.34;68.31;98755.44;4871550;29;20061;-69
2022/10/18 02:06:26;;;;;;;93.25;51.35;;;;;;;23.50;69.26;98761.47;4872100;29;20067;-70
2022/10/18 02:09:26;;;;;;;82.45;49.58;;;;;;;23.57;68.83;98768.19;4872039;29;20064;-70
2022/10/18 02:12:12;;;;;;;90.10;49.43;;;;;;;23.64;66.18;98774.13;4856544;29;20507;-69
2022/10/18 02:15:03;;;;;;;84.07;49.95;;;;;;;23.66;68.04;98776.56;4868666;29;20292;-70
2022/10/18 02:17:46;;;;;;;90.13;48.92;;;;;;;23.78;67.24;98773.34;4855523;29;20440;-70
2022/10/18 02:20:35;;;;;;;93.07;51.33;;;;;;;23.82;66.64;98779.88;4855701;29;20845;-70
2022/10/18 02:23:22;;;;;;;85.20;49.67;;;;;;;23.95;67.00;98783.78;4886447;29;20163;-70
2022/10/18 02:26:11;;;;;;;78.57;48.63;;;;;;;23.97;67.30;98782.38;4857352;29;20097;-71
2022/10/18 02:29:01;;;;;;;84.70;49.50;;;;;;;24.15;66.17;98790.84;4886777;29;20045;-70
2022/10/18 02:31:52;;;;;;;84.75;48.45;;;;;;;24.24;65.61;98794.50;4872563;29;20064;-70
2022/10/18 02:35:13;;;;;;;87.13;48.15;;;;;;;24.44;65.14;98796.06;4853559;29;20061;-70
2022/10/18 02:37:58;;;;;;;79.15;46.40;;;;;;;24.74;64.71;98802.09;4858390;29;20077;-70
2022/10/18 02:40:46;;;;;;;89.45;48.65;;;;;;;24.78;63.43;98805.84;4887775;29;20427;-71
2022/10/18 02:43:36;;;;;;;89.53;48.88;;;;;;;24.65;61.35;98796.53;4875158;29;20135;-71
2022/10/18 02:46:19;;;;;;;82.13;47.20;;;;;;;24.90;62.06;98802.59;4859583;29;20061;-70
2022/10/18 02:49:09;;;;;;;88.88;48.33;;;;;;;24.93;59.89;98808.28;4860044;29;20164;-71
2022/10/18 02:51:58;;;;;;;90.38;47.95;;;;;;;25.18;63.29;98815.19;4875213;29;20056;-70
2022/10/18 02:54:40;;;;;;;82.28;48.65;;;;;;;25.19;60.33;98818.72;4874836;29;20048;-70
2022/10/18 02:57:29;;;;;;;90.40;50.08;;;;;;;25.39;60.24;98820.22;4871774;29;20045;-70
2022/10/18 03:00:13;;;;;;;92.95;49.83;;;;;;;25.51;61.06;98822.44;4859171;29;20060;-71
2022/10/18 03:03:08;;;;;;;86.93;48.17;;;;;;;25.32;57.74;98828.91;4875248;29;20557;-70
2022/10/18 03:06:02;;;;;;;102.70;51.47;;;;;;;25.39;57.48;98829.31;4876237;29;20116;-72
2022/10/18 03:08:38;;;;;;;84.45;46.45;;;;;;;25.63;56.80;98832.91;4875834;29;20049;-71
2022/10/18 03:11:34;;;;;;;88.30;45.20;;;;;;;26.01;57.31;98833.38;4878651;29;20484;-70
2022/10/18 03:14:09;;;;;;;82.90;45.45;;;;;;;26.16;58.96;98838.47;4874983;29;20049;-71
2022/10/18 03:16:58;;;;;;;87.85;48.22;;;;;;;26.26;57.75;98845.66;4875019;29;20076;-71
2022/10/18 03:19:40;;;;;;;471.42;74.82;;;;;;;26.22;57.58;98844.66;4874991;29;20059;-73
2022/10/18 03:22:28;;;;;;;111.82;48.97;;;;;;;26.49;56.40;98851.94;4858145;29;20125;-72
2022/10/18 03:25:10;;;;;;;97.35;49.92;;;;;;;26.52;55.80;98844.97;4873095;29;20056;-70
2022/10/18 03:28:00;;;;;;;118.35;55.95;;;;;;;26.33;53.91;98847.94;4871935;29;20068;-73
2022/10/18 03:30:54;;;;;;;87.50;48.35;;;;;;;26.74;54.90;98839.44;4875088;29;20537;-72
2022/10/18 03:33:43;;;;;;;102.28;54.03;;;;;;;26.86;54.28;98846.28;4869271;29;20525;-71
2022/10/18 03:36:26;;;;;;;98.63;54.13;;;;;;;26.84;54.54;98837.53;4857854;29;20489;-71
2022/10/18 03:39:14;;;;;;;110.72;56.53;;;;;;;26.93;53.36;98849.41;4873698;29;20080;-71
2022/10/18 03:41:57;;;;;;;116.68;57.90;;;;;;;27.04;51.72;98842.47;4874508;29;20076;-70
2022/10/18 03:44:45;;;;;;;125.20;61.05;;;;;;;27.27;51.63;98836.88;4873978;29;20057;-71
2022/10/18 03:47:28;;;;;;;113.05;57.97;;;;;;;27.36;51.13;98842.38;4873853;29;20101;-71
2022/10/18 03:50:17;;;;;;;89.95;52.00;;;;;;;27.92;52.00;98846.97;4857732;29;20125;-71
2022/10/18 03:53:06;;;;;;;90.32;52.75;;;;;;;27.98;52.62;98850.38;4855574;29;20077;-72
2022/10/18 03:55:55;;;;;;;118.50;56.80;;;;;;;28.08;51.86;98844.50;4855140;29;20434;-71
2022/10/18 03:58:44;;;;;;;102.80;53.55;;;;;;;28.49;50.90;98848.66;4855506;29;20141;-73
2022/10/18 04:01:26;;;;;;;109.47;55.95;;;;;;;28.52;48.26;98847.19;4852074;29;20143;-74
2022/10/18 04:04:15;;;;;;;103.05;57.72;;;;;;;29.01;48.84;98850.41;4873747;29;20474;-71
2022/10/18 04:06:57;;;;;;;103.95;57.10;;;;;;;29.21;46.43;98845.28;4866492;29;20140;-71
2022/10/18 04:09:46;;;;;;;109.78;56.28;;;;;;;29.39;49.19;98852.31;4877957;29;20064;-71
2022/10/18 04:12:28;;;;;;;107.20;54.90;;;;;;;29.64;45.07;98849.69;4859572;29;20620;-72
2022/10/18 04:15:17;;;;;;;103.28;53.45;;;;;;;29.50;44.05;98849.13;4872076;29;20064;-71
2022/10/18 04:17:59;;;;;;;117.82;52.25;;;;;;;30.25;43.56;98849.97;4878232;29;20115;-71
2022/10/18 04:20:48;;;;;;;95.63;50.60;;;;;;;29.94;43.64;98855.97;4878519;29;20040;-72
2022/10/18 04:23:37;;;;;;;89.78;52.08;;;;;;;30.50;42.92;98849.25;4875006;29;20045;-71
2022/10/18 04:26:26;;;;;;;100.53;48.85;;;;;;;30.68;46.42;98847.06;4866854;29;20060;-71
2022/10/18 04:29:08;;;;;;;83.03;49.63;;;;;;;31.02;45.07;98854.97;4870311;29;20176;-70
2022/10/18 04:32:03;;;;;;;98.65;43.28;;;;;;;31.15;42.98;98852.19;4859245;29;20069;-71
2022/10/18 04:34:38;;;;;;;78.85;41.42;;;;;;;31.32;42.02;98843.63;4851142;29;20064;-70
2022/10/18 04:37:33;;;;;;;66.90;38.47;;;;;;;31.02;40.11;98849.41;4853265;29;20058;-69
2022/10/18 04:40:09;;;;;;;83.18;39.75;;;;;;;31.61;40.26;98841.72;4848361;29;20046;-71
2022/10/18 04:43:03;;;;;;;78.88;37.70;;;;;;;31.68;38.30;98841.94;4843337;29;20088;-69
2022/10/18 04:45:39;;;;;;;73.50;33.90;;;;;;;31.94;37.80;98841.47;4853715;29;20053;-71
2022/10/18 04:48:33;;;;;;;43.50;25.60;;;;;;;32.22;39.65;98839.88;4849681;29;20136;-70
2022/10/18 04:51:09;;;;;;;44.88;24.55;;;;;;;32.40;35.11;98843.94;4851714;29;20053;-70
2022/10/18 04:54:06;;;;;;;51.25;22.15;;;;;;;32.21;36.21;98838.25;4853090;29;20370;-71
2022/10/18 04:56:41;;;;;;;41.92;21.80;;;;;;;32.63;35.21;98841.38;4852840;29;20792;-71
2022/10/18 04:59:30;;;;;;;37.28;19.92;;;;;;;32.87;33.61;98834.03;4846417;29;20101;-73
2022/10/18 05:02:11;;;;;;;37.05;21.65;;;;;;;32.50;35.28;98837.88;4843275;29;20076;-72
2022/10/18 05:05:07;;;;;;;44.58;22.42;;;;;;;32.68;35.33;98837.53;4867081;29;20083;-70
2022/10/18 05:07:47;;;;;;;57.80;23.63;;;;;;;32.78;34.35;98831.44;4846235;29;20049;-71
2022/10/18 05:10:36;;;;;;;47.85;25.75;;;;;;;32.97;35.67;98834.28;4852259;29;20045;-70
2022/10/18 05:13:19;;;;;;;57.10;27.35;;;;;;;32.58;35.24;98828.56;4847407;29;20361;-71
2022/10/18 05:16:08;;;;;;;56.28;27.58;;;;;;;32.33;37.32;98827.06;4850224;29;20061;-70
2022/10/18 05:18:50;;;;;;;64.03;26.92;;;;;;;32.88;35.72;98825.31;4855307;29;20140;-71
2022/10/18 05:21:45;;;;;;;56.22;25.02;;;;;;;32.97;34.29;98823.16;4874452;29;20050;-71
2022/10/18 05:24:20;;;;;;;44.80;24.70;;;;;;;32.86;34.32;98826.84;4861146;29;20056;-74
2022/10/18 05:27:09;;;;;;;48.35;25.35;;;;;;;33.26;34.99;98823.84;4859560;29;20149;-73
2022/10/18 05:29:52;;;;;;;62.60;24.48;;;;;;;33.29;36.02;98823.13;4861277;29;20055;-75
2022/10/18 05:32:52;;;;;;;56.67;24.33;;;;;;;32.61;32.90;98815.91;4851067;29;20091;-74
2022/10/18 05:35:48;;;;;;;49.33;23.10;;;;;;;33.12;33.44;98812.41;4847095;29;20053;-75
2022/10/18 05:38:24;;;;;;;46.20;22.67;;;;;;;33.40;35.24;98816.97;4849369;29;20050;-75
2022/10/18 05:41:13;;;;;;;50.63;23.00;;;;;;;33.24;34.55;98815.03;4853446;29;20116;-73
2022/10/18 05:44:03;;;;;;;46.35;23.38;;;;;;;33.25;32.98;98811.09;4841427;29;20065;-73
2022/10/18 05:46:45;;;;;;;55.08;22.70;;;;;;;33.09;36.37;98822.22;4849585;29;20057;-72
2022/10/18 05:49:35;;;;;;;53.30;25.17;;;;;;;32.44;33.19;98805.94;4850554;29;20088;-71
2022/10/18 05:52:17;;;;;;;50.22;23.92;;;;;;;33.12;33.66;98804.06;4851742;29;20101;-71
2022/10/18 05:55:06;;;;;;;52.28;25.48;;;;;;;33.09;33.54;98804.75;4844623;29;20069;-69
2022/10/18 05:57:51;;;;;;;40.42;23.75;;;;;;;33.58;32.98;98795.91;4868913;29;20144;-71
2022/10/18 06:00:40;;;;;;;50.13;22.80;;;;;;;33.59;31.16;98791.94;4852381;29;20094;-73
2022/10/18 06:03:22;;;;;;;49.45;22.55;;;;;;;33.54;33.79;98790.25;4862127;29;20537;-75
2022/10/18 06:06:14;;;;;;;55.65;23.33;;;;;;;33.02;31.51;98793.44;4847858;29;20113;-75
2022/10/18 06:08:56;;;;;;;44.08;21.20;;;;;;;33.57;32.34;98787.91;4868907;29;20065;-76
2022/10/18 06:11:45;;;;;;;58.97;22.33;;;;;;;33.54;33.40;98783.91;4854646;29;20053;-72
2022/10/18 06:14:27;;;;;;;47.90;21.52;;;;;;;33.35;33.06;98782.72;4866024;29;20522;-77
2022/10/18 06:17:17;;;;;;;48.83;19.63;;;;;;;33.48;35.17;98779.81;4856590;29;20072;-74
2022/10/18 06:19:58;;;;;;;42.63;20.57;;;;;;;33.54;35.55;98775.56;4871460;29;20136;-74
2022/10/18 06:22:48;;;;;;;46.25;18.55;;;;;;;33.34;35.36;98764.44;4863446;29;20296;-71
2022/10/18 06:25:30;;;;;;;36.15;19.35;;;;;;;33.42;34.51;98764.56;4867594;29;20052;-70
2022/10/18 06:28:19;;;;;;;46.80;19.35;;;;;;;33.43;34.39;98771.75;4854056;29;20084;-70
2022/10/18 06:31:01;;;;;;;33.67;17.67;;;;;;;33.54;35.69;98762.44;4863872;29;20827;-72
2022/10/18 06:33:50;;;;;;;40.83;18.70;;;;;;;33.34;30.29;98755.25;4878053;29;20057;-70
2022/10/18 06:36:31;;;;;;;41.88;18.95;;;;;;;33.59;33.08;98760.53;4880664;29;20127;-71
2022/10/18 06:39:21;;;;;;;36.17;18.65;;;;;;;32.57;30.97;98756.69;4887511;29;20086;-71
2022/10/18 06:42:03;;;;;;;47.28;18.45;;;;;;;33.44;33.83;98751.91;4872324;29;20071;-74
2022/10/18 06:44:52;;;;;;;37.40;18.95;;;;;;;33.06;33.36;98753.44;4886340;29;20048;-68
2022/10/18 06:47:34;;;;;;;40.08;19.23;;;;;;;33.45;31.01;98736.81;4888719;29;20487;-72
2022/10/18 06:50:23;;;;;;;42.60;18.80;;;;;;;33.01;30.43;98734.25;4872706;29;20088;-72
2022/10/18 06:53:07;;;;;;;36.25;19.20;;;;;;;32.83;33.12;98739.44;4872414;29;20155;-71
2022/10/18 06:55:56;;;;;;;37.83;18.27;;;;;;;33.03;32.60;98728.34;4866700;29;20053;-74
2022/10/18 06:58:45;;;;;;;30.73;17.60;;;;;;;33.42;31.86;98725.59;4870899;29;20414;-74
2022/10/18 07:01:34;;;;;;;37.15;19.27;;;;;;;33.44;32.66;98723.25;4855456;29;20056;-70
2022/10/18 07:04:15;;;;;;;42.13;18.60;;;;;;;33.70;34.46;98720.63;4880648;29;20828;-71
2022/10/18 07:07:05;;;;;;;34.95;17.98;;;;;;;33.59;32.48;98707.66;4872181;29;20148;-74
2022/10/18 07:09:48;;;;;;;39.13;19.48;;;;;;;33.85;32.19;98706.97;4883357;29;20128;-74
2022/10/18 07:12:38;;;;;;;47.00;19.45;;;;;;;33.90;31.96;98703.91;4874102;29;20073;-70
2022/10/18 07:15:22;;;;;;;39.85;19.08;;;;;;;33.82;30.46;98696.56;4871839;29;20112;-70
2022/10/18 07:18:17;;;;;;;43.38;17.17;;;;;;;33.51;33.55;98684.44;4857281;29;20065;-69
2022/10/18 07:21:01;;;;;;;41.17;18.55;;;;;;;33.71;33.35;98680.50;4867967;29;20068;-70
2022/10/18 07:23:52;;;;;;;37.38;18.42;;;;;;;33.52;33.86;98674.94;4852517;29;20045;-71
2022/10/18 07:26:34;;;;;;;46.83;18.17;;;;;;;32.89;31.75;98668.50;4868755;29;20054;-68
2022/10/18 07:29:24;;;;;;;45.13;18.25;;;;;;;33.12;31.90;98667.81;4870430;29;20148;-71
2022/10/18 07:32:20;;;;;;;37.40;17.85;;;;;;;33.05;33.14;98662.06;4837766;29;20125;-68
2022/10/18 07:35:09;;;;;;;33.63;16.65;;;;;;;33.25;32.54;98658.13;4852173;29;20145;-72
2022/10/18 07:37:58;;;;;;;33.67;16.00;;;;;;;33.39;30.78;98649.25;4850635;29;20498;-67
2022/10/18 07:40:40;;;;;;;40.60;16.80;;;;;;;33.46;31.29;98643.00;4841771;29;20717;-70
2022/10/18 07:43:29;;;;;;;37.25;17.25;;;;;;;32.84;30.67;98640.97;4860616;29;20052;-72
2022/10/18 07:46:12;;;;;;;35.42;15.57;;;;;;;32.96;31.82;98638.06;4842232;29;20050;-71
2022/10/18 07:49:01;;;;;;;28.27;16.75;;;;;;;33.13;31.55;98619.34;4835928;29;20049;-71
2022/10/18 07:51:42;;;;;;;36.95;17.27;;;;;;;33.28;32.51;98623.22;4852353;29;20064;-71
2022/10/18 07:54:32;;;;;;;29.23;16.02;;;;;;;33.45;33.76;98621.94;4836068;29;20057;-71
2022/10/18 07:57:27;;;;;;;31.90;15.15;;;;;;;33.07;30.23;98615.22;4852607;29;20730;-71
2022/10/18 08:00:05;;;;;;;38.17;15.43;;;;;;;33.27;31.75;98608.50;4825294;29;20057;-70
2022/10/18 08:02:58;;;;;;;35.35;15.48;;;;;;;33.34;29.73;98610.59;4849674;29;20498;-71
2022/10/18 08:05:47;;;;;;;29.73;14.85;;;;;;;33.43;31.94;98604.81;4848742;29;20533;-71
2022/10/18 08:08:29;;;;;;;25.77;14.43;;;;;;;33.25;31.16;98602.53;4847062;29;20141;-71
2022/10/18 08:11:25;;;;;;;26.00;14.32;;;;;;;33.35;34.34;98588.00;4849398;29;20061;-70
2022/10/18 08:14:14;;;;;;;31.45;15.18;;;;;;;33.06;30.02;98588.63;4851096;29;20144;-70
2022/10/18 08:16:56;;;;;;;29.27;15.48;;;;;;;32.90;31.38;98583.91;4865252;29;20052;-68
2022/10/18 08:19:44;;;;;;;35.58;15.40;;;;;;;32.93;32.36;98577.63;4857817;29;20086;-68
2022/10/18 08:22:47;;;;;;;29.20;16.15;;;;;;;32.91;30.76;98568.84;4860494;29;20077;-71
2022/10/18 08:25:39;;;;;;;33.35;15.00;;;;;;;33.05;29.52;98562.75;4832843;29;20136;-72
2022/10/18 08:28:22;;;;;;;28.92;14.73;;;;;;;33.06;31.68;98553.25;4867311;29;20136;-70
2022/10/18 08:31:20;;;;;;;29.50;14.73;;;;;;;32.80;29.87;98550.38;4857559;29;20061;-71
2022/10/18 08:33:58;;;;;;;37.83;15.77;;;;;;;33.05;32.11;98550.84;4852497;29;20050;-72
2022/10/18 08:36:48;;;;;;;30.55;14.27;;;;;;;32.91;30.39;98541.06;4851086;29;20061;-71
2022/10/18 08:39:37;;;;;;;26.75;14.65;;;;;;;33.01;30.48;98547.19;4851939;29;20559;-74
2022/10/18 08:42:35;;;;;;;24.20;13.27;;;;;;;33.18;31.55;98541.19;4848934;29;20111;-73
2022/10/18 08:45:25;;;;;;;28.30;15.07;;;;;;;33.07;32.88;98534.59;4867428;29;20051;-72
2022/10/18 08:48:45;;;;;;;33.42;16.40;;;;;;;32.82;31.69;98523.81;4850986;29;20065;-73
2022/10/18 08:51:41;;;;;;;28.08;14.02;;;;;;;32.98;32.41;98529.28;4855638;29;20088;-71
2022/10/18 08:54:26;;;;;;;34.50;15.05;;;;;;;33.02;30.46;98524.59;4859769;29;20053;-69
2022/10/18 08:57:23;;;;;;;24.52;15.30;;;;;;;33.26;32.31;98517.88;4850080;29;20057;-70
2022/10/18 08:59:58;;;;;;;37.45;15.95;;;;;;;33.02;35.03;98518.22;4851892;29;20113;-70
2022/10/18 09:03:17;;;;;;;29.35;14.88;;;;;;;33.00;32.26;98510.25;4857607;29;20053;-69
2022/10/18 09:06:29;;;;;;;29.05;15.20;;;;;;;33.25;32.77;98505.19;4848603;29;20065;-69
2022/10/18 09:09:44;;;;;;;39.28;14.95;;;;;;;33.16;33.10;98512.97;4850453;29;20065;-71
2022/10/18 09:12:20;;;;;;;37.63;16.08;;;;;;;32.97;32.02;98506.22;4863647;29;20156;-72
2022/10/18 09:15:26;;;;;;;37.47;16.98;;;;;;;32.73;30.97;98495.44;4833723;29;20358;-71
2022/10/18 09:18:31;;;;;;;34.85;15.43;;;;;;;32.69;29.76;98489.81;4847045;29;20394;-70
2022/10/18 09:21:37;;;;;;;27.88;15.48;;;;;;;33.02;31.27;98488.47;4850489;29;20604;-71
2022/10/18 09:24:33;;;;;;;31.13;14.73;;;;;;;33.01;31.12;98483.25;4852577;29;20060;-71
2022/10/18 09:27:33;;;;;;;27.58;15.38;;;;;;;32.99;32.85;98482.81;4851931;29;20062;-71
2022/10/18 09:31:13;;;;;;;33.80;14.73;;;;;;;32.88;30.65;98480.63;4844810;29;20061;-70
2022/10/18 09:34:00;;;;;;;29.67;14.02;;;;;;;33.11;30.54;98477.91;4804469;29;20137;-71
2022/10/18 09:36:51;;;;;;;33.53;13.35;;;;;;;32.93;32.21;98476.78;4852892;29;20053;-70
2022/10/18 09:39:48;;;;;;;29.13;14.25;;;;;;;32.90;31.60;98467.16;4853525;29;20060;-70
2022/10/18 09:42:35;;;;;;;28.05;15.02;;;;;;;32.61;30.53;98470.59;4853774;29;20491;-70
2022/10/18 09:45:31;;;;;;;28.45;15.30;;;;;;;32.26;29.27;98469.47;4852929;29;20061;-71
2022/10/18 09:48:20;;;;;;;24.70;13.88;;;;;;;32.67;30.34;98463.56;4847155;29;20078;-70
2022/10/18 09:51:16;;;;;;;34.92;15.65;;;;;;;32.73;30.91;98456.53;4834679;29;20125;-71
2022/10/18 09:54:28;;;;;;;42.63;14.70;;;;;;;32.77;32.93;98458.22;4835580;29;20534;-70
2022/10/18 09:57:28;;;;;;;27.98;15.07;;;;;;;32.74;31.31;98452.59;4827586;29;20068;-70
2022/10/18 10:00:19;;;;;;;29.90;14.52;;;;;;;32.77;33.48;98446.28;4835537;29;20049;-72
2022/10/18 10:03:13;;;;;;;32.72;14.32;;;;;;;32.69;33.12;98444.56;4843131;29;20049;-70
2022/10/18 10:06:09;;;;;;;33.70;15.38;;;;;;;32.73;32.45;98439.84;4852808;29;20513;-71
2022/10/18 10:09:10;;;;;;;27.27;13.98;;;;;;;32.78;31.25;98434.00;4841448;29;20109;-71
2022/10/18 10:11:49;;;;;;;29.80;13.98;;;;;;;32.46;30.52;98436.94;4853616;29;20058;-70
2022/10/18 10:14:49;;;;;;;23.48;13.25;;;;;;;32.55;31.58;98437.53;4852096;29;20064;-71
2022/10/18 10:17:28;;;;;;;24.02;11.77;;;;;;;32.61;30.37;98431.69;4851131;29;20057;-70
2022/10/18 10:20:35;;;;;;;30.95;12.68;;;;;;;32.60;29.57;98436.47;4852221;29;20140;-70
2022/10/18 10:23:44;;;;;;;30.35;12.27;;;;;;;32.14;32.95;98434.34;4835840;29;20393;-70
2022/10/18 10:26:40;;;;;;;29.50;12.35;;;;;;;32.28;33.14;98427.47;4848135;29;20054;-71
2022/10/18 10:29:56;;;;;;;32.20;11.57;;;;;;;32.36;29.54;98430.00;4851439;29;20057;-71
2022/10/18 10:32:58;;;;;;;23.75;10.75;;;;;;;32.25;29.56;98420.66;4813050;29;20566;-70
2022/10/18 10:35:40;;;;;;;25.85;10.10;;;;;;;32.25;32.84;98417.88;4795951;29;20050;-71
2022/10/18 10:38:33;;;;;;;27.90;11.63;;;;;;;32.16;31.26;98426.44;4818347;29;20053;-70
2022/10/18 10:41:30;;;;;;;21.55;11.20;;;;;;;31.91;34.44;98425.06;4841119;29;20061;-70
2022/10/18 10:44:22;;;;;;;27.57;12.07;;;;;;;31.85;32.29;98418.19;4853198;29;20057;-70
2022/10/18 10:47:05;;;;;;;26.83;12.18;;;;;;;31.69;31.38;98418.25;4853404;29;20053;-70
2022/10/18 10:50:01;;;;;;;29.25;13.63;;;;;;;31.81;30.96;98418.13;4838826;29;20061;-70
2022/10/18 10:52:39;;;;;;;23.63;12.60;;;;;;;31.67;34.41;98418.63;4853388;29;20049;-70
2022/10/18 10:55:34;;;;;;;24.23;12.13;;;;;;;31.60;36.68;98418.44;4852164;29;20054;-70
2022/10/18 10:58:23;;;;;;;31.70;12.18;;;;;;;31.51;36.81;98415.88;4855420;29;20057;-70
2022/10/18 11:01:27;;;;;;;29.73;13.10;;;;;;;31.49;36.97;98409.91;4842377;29;20049;-70
2022/10/18 11:04:23;;;;;;;30.48;12.50;;;;;;;31.42;36.92;98413.25;4856447;29;20149;-71
2022/10/18 11:07:16;;;;;;;23.83;13.23;;;;;;;31.41;35.56;98405.31;4855522;29;20072;-70
2022/10/18 11:10:17;;;;;;;35.40;14.35;;;;;;;31.26;37.00;98415.28;4855824;29;20156;-70
2022/10/18 11:13:13;;;;;;;33.35;13.65;;;;;;;31.15;37.77;98412.22;4855166;29;20057;-70
2022/10/18 11:16:19;;;;;;;24.10;13.10;;;;;;;31.12;38.22;98410.16;4873506;29;20072;-70
2022/10/18 11:18:56;;;;;;;27.48;14.88;;;;;;;30.84;42.04;98407.47;4875077;29;20136;-70
2022/10/18 11:21:46;;;;;;;32.30;13.93;;;;;;;30.93;41.68;98412.84;4864410;29;20101;-70
2022/10/18 11:24:28;;;;;;;38.47;15.07;;;;;;;30.81;41.04;98410.94;4850263;29;20228;-70
2022/10/18 11:27:32;;;;;;;28.48;13.93;;;;;;;30.71;40.26;98409.50;4820845;29;20054;-69
2022/10/18 11:30:28;;;;;;;24.40;13.35;;;;;;;30.63;40.76;98422.34;4847095;29;20064;-69
2022/10/18 11:33:36;;;;;;;30.42;13.90;;;;;;;30.61;41.13;98421.91;4854517;29;20078;-70
2022/10/18 11:36:52;;;;;;;30.67;14.07;;;;;;;30.48;42.64;98428.66;4854706;29;20708;-70
2022/10/18 11:40:27;;;;;;;26.30;14.30;;;;;;;30.38;42.91;98429.16;4855858;29;20057;-70
2022/10/18 11:43:20;;;;;;;27.48;14.68;;;;;;;30.29;42.75;98429.28;4835759;29;20046;-70
2022/10/18 11:47:23;;;;;;;35.70;15.55;;;;;;;30.26;43.22;98436.31;4836737;29;20060;-70
2022/10/18 11:50:25;;;;;;;35.55;15.23;;;;;;;30.16;43.57;98430.50;4831477;29;20401;-70
2022/10/18 11:53:21;;;;;;;32.25;15.32;;;;;;;30.02;43.39;98430.91;4836693;29;20058;-72
2022/10/18 11:56:10;;;;;;;28.58;15.38;;;;;;;29.89;43.29;98432.09;4836058;29;20442;-71
2022/10/18 11:59:24;;;;;;;34.20;14.43;;;;;;;29.95;44.27;98436.22;4837475;29;20490;-72
2022/10/18 12:02:25;;;;;;;33.70;14.38;;;;;;;29.74;45.38;98442.69;4841623;29;20083;-70
2022/10/18 12:05:03;;;;;;;33.85;15.07;;;;;;;29.67;45.37;98440.50;4837434;29;20129;-71
2022/10/18 12:08:43;;;;;;;34.20;15.30;;;;;;;29.68;44.53;98438.53;4836663;29;20058;-71
2022/10/18 12:11:32;;;;;;;35.80;15.15;;;;;;;29.56;44.60;98447.66;4795824;29;20068;-71
2022/10/18 12:14:39;;;;;;;29.27;15.40;;;;;;;29.47;46.52;98452.50;4849408;29;20140;-70
2022/10/18 12:17:34;;;;;;;32.53;16.23;;;;;;;29.38;45.77;98449.81;4841274;29;20056;-70
2022/10/18 12:20:34;;;;;;;31.38;14.95;;;;;;;29.32;45.96;98451.22;4859433;29;20072;-71
2022/10/18 12:23:46;;;;;;;33.55;15.55;;;;;;;29.25;46.83;98456.50;4853342;29;20057;-71
2022/10/18 12:26:36;;;;;;;33.03;15.85;;;;;;;29.18;46.45;98464.59;4851561;29;20057;-71
2022/10/18 12:29:24;;;;;;;35.22;15.93;;;;;;;29.21;46.12;98470.19;4845290;29;20068;-70
2022/10/18 12:32:24;;;;;;;33.88;16.65;;;;;;;29.11;46.79;98470.63;4836908;29;20069;-71
2022/10/18 12:35:17;;;;;;;36.33;15.90;;;;;;;28.99;48.56;98488.00;4837503;29;20059;-73
2022/10/18 12:38:11;;;;;;;39.88;15.75;;;;;;;28.92;48.19;98487.75;4852316;29;20084;-70
2022/10/18 12:40:54;;;;;;;31.48;14.93;;;;;;;28.77;48.83;98489.19;4851265;29;20057;-71
2022/10/18 12:43:43;;;;;;;33.63;15.98;;;;;;;28.76;48.43;98497.81;4837887;29;20058;-70
2022/10/18 12:46:47;;;;;;;46.00;16.83;;;;;;;28.77;49.08;98499.44;4852140;29;20060;-71
2022/10/18 12:49:43;;;;;;;36.83;15.57;;;;;;;28.70;49.31;98505.53;4836980;29;20060;-72
2022/10/18 12:52:28;;;;;;;36.33;16.38;;;;;;;28.65;48.34;98509.28;4854012;29;20081;-71
2022/10/18 12:55:18;;;;;;;38.83;17.15;;;;;;;28.49;52.50;98513.81;4853586;29;20057;-71
2022/10/18 12:58:21;;;;;;;37.53;17.13;;;;;;;28.45;51.98;98521.13;4853510;29;20071;-68
2022/10/18 13:01:12;;;;;;;44.60;16.85;;;;;;;28.32;50.91;98512.00;4834627;29;20422;-73
2022/10/18 13:04:06;;;;;;;42.25;16.25;;;;;;;28.30;51.05;98526.13;4834886;29;20077;-73
2022/10/18 13:07:07;;;;;;;35.45;17.13;;;;;;;28.31;50.91;98524.97;4854011;29;20061;-73
2022/10/18 13:10:13;;;;;;;44.05;18.05;;;;;;;28.35;50.22;98538.09;4865039;29;20058;-73
2022/10/18 13:13:37;;;;;;;33.92;16.27;;;;;;;28.38;49.31;98548.47;4852980;29;20133;-71